Aviation Digital Data Service (ADDS)

Output produced by METARs form (1024 UTC 16 August 2018)
found at http://aviationweather.gov/adds/metars/
 
KUTS 160953Z AUTO 19004KT 10SM CLR 26/24 A3002 RMK AO2 SLP159 T02560239